sensor_id;sensor_type;location;lat;lon;timestamp;noise_LAeq;noise_LA_min;noise_LA_max;noise_LA01;noise_LA95
76261;Laerm;65076;52.362;6.588;2024-01-25T00:01:16;43.57;34.03;60.39;;
76261;Laerm;65076;52.362;6.588;2024-01-25T00:11:17;39.92;33.93;47.75;;
76261;Laerm;65076;52.362;6.588;2024-01-25T00:13:48;36.72;33.32;43.72;;
76261;Laerm;65076;52.362;6.588;2024-01-25T00:21:24;36.24;33.84;41.73;;
76261;Laerm;65076;52.362;6.588;2024-01-25T00:29:00;36.78;33.60;39.55;;
76261;Laerm;65076;52.362;6.588;2024-01-25T00:34:02;37.34;32.95;47.86;;
76261;Laerm;65076;52.362;6.588;2024-01-25T00:39:03;37.29;33.31;43.87;;
76261;Laerm;65076;52.362;6.588;2024-01-25T00:41:36;37.20;33.75;40.77;;
76261;Laerm;65076;52.362;6.588;2024-01-25T00:49:12;35.45;32.65;38.95;;
76261;Laerm;65076;52.362;6.588;2024-01-25T00:56:45;35.16;32.59;39.73;;
76261;Laerm;65076;52.362;6.588;2024-01-25T01:04:20;35.12;32.43;37.92;;
76261;Laerm;65076;52.362;6.588;2024-01-25T01:11:52;34.87;32.71;37.70;;
76261;Laerm;65076;52.362;6.588;2024-01-25T01:14:22;34.62;32.32;37.04;;
76261;Laerm;65076;52.362;6.588;2024-01-25T01:21:57;34.60;32.87;37.36;;
76261;Laerm;65076;52.362;6.588;2024-01-25T01:26:55;34.50;32.81;39.94;;
76261;Laerm;65076;52.362;6.588;2024-01-25T01:34:28;51.90;32.81;66.65;;
76261;Laerm;65076;52.362;6.588;2024-01-25T01:39:33;34.74;32.60;37.99;;
76261;Laerm;65076;52.362;6.588;2024-01-25T01:47:02;35.11;32.56;53.97;;
76261;Laerm;65076;52.362;6.588;2024-01-25T01:57:04;34.47;33.23;36.68;;
76261;Laerm;65076;52.362;6.588;2024-01-25T02:02:01;34.68;32.36;38.59;;
76261;Laerm;65076;52.362;6.588;2024-01-25T02:09:33;39.91;31.92;53.93;;
76261;Laerm;65076;52.362;6.588;2024-01-25T02:14:37;34.96;32.87;40.28;;
76261;Laerm;65076;52.362;6.588;2024-01-25T02:19:36;34.72;32.39;39.26;;
76261;Laerm;65076;52.362;6.588;2024-01-25T02:24:39;34.36;32.36;36.05;;
76261;Laerm;65076;52.362;6.588;2024-01-25T02:29:40;34.42;32.27;39.34;;
76261;Laerm;65076;52.362;6.588;2024-01-25T02:32:14;34.54;32.93;37.10;;
76261;Laerm;65076;52.362;6.588;2024-01-25T02:39:45;34.37;32.21;37.03;;
76261;Laerm;65076;52.362;6.588;2024-01-25T02:44:46;34.36;32.87;40.90;;
76261;Laerm;65076;52.362;6.588;2024-01-25T02:47:20;34.89;31.87;38.50;;
76261;Laerm;65076;52.362;6.588;2024-01-25T02:54:56;34.82;33.38;38.05;;
76261;Laerm;65076;52.362;6.588;2024-01-25T02:59:59;34.68;32.66;37.32;;
76261;Laerm;65076;52.362;6.588;2024-01-25T03:02:32;44.46;32.56;57.92;;
76261;Laerm;65076;52.362;6.588;2024-01-25T03:10:08;34.72;33.25;38.49;;
76261;Laerm;65076;52.362;6.588;2024-01-25T03:15:10;34.62;32.75;37.72;;
76261;Laerm;65076;52.362;6.588;2024-01-25T03:20:12;35.27;31.78;39.17;;
76261;Laerm;65076;52.362;6.588;2024-01-25T03:22:44;35.15;32.67;40.47;;
76261;Laerm;65076;52.362;6.588;2024-01-25T03:27:46;43.72;33.11;60.58;;
76261;Laerm;65076;52.362;6.588;2024-01-25T03:32:47;36.27;33.81;40.49;;
76261;Laerm;65076;52.362;6.588;2024-01-25T03:35:19;35.37;33.49;37.61;;
76261;Laerm;65076;52.362;6.588;2024-01-25T03:45:52;35.12;33.31;39.04;;
76261;Laerm;65076;52.362;6.588;2024-01-25T03:50:54;38.13;33.66;48.29;;
76261;Laerm;65076;52.362;6.588;2024-01-25T03:58:28;70.58;34.71;82.34;;
76261;Laerm;65076;52.362;6.588;2024-01-25T04:03:31;36.49;34.45;41.74;;
76261;Laerm;65076;52.362;6.588;2024-01-25T04:08:32;35.88;33.81;38.21;;
76261;Laerm;65076;52.362;6.588;2024-01-25T04:11:04;59.08;35.24;76.09;;
76261;Laerm;65076;52.362;6.588;2024-01-25T04:18:45;39.07;35.34;49.87;;
76261;Laerm;65076;52.362;6.588;2024-01-25T04:26:14;48.31;35.30;62.97;;
76261;Laerm;65076;52.362;6.588;2024-01-25T04:28:47;48.01;35.72;62.81;;
76261;Laerm;65076;52.362;6.588;2024-01-25T04:36:22;50.68;36.12;68.67;;
76261;Laerm;65076;52.362;6.588;2024-01-25T04:41:22;58.52;36.01;75.42;;
76261;Laerm;65076;52.362;6.588;2024-01-25T04:43:55;38.33;35.84;42.14;;
76261;Laerm;65076;52.362;6.588;2024-01-25T04:51:30;48.87;36.45;64.77;;
76261;Laerm;65076;52.362;6.588;2024-01-25T04:56:30;49.12;36.34;65.91;;
76261;Laerm;65076;52.362;6.588;2024-01-25T04:59:04;46.82;37.11;58.13;;
76261;Laerm;65076;52.362;6.588;2024-01-25T05:06:41;43.66;36.52;55.80;;
76261;Laerm;65076;52.362;6.588;2024-01-25T05:11:42;46.19;37.40;57.06;;
76261;Laerm;65076;52.362;6.588;2024-01-25T05:14:14;52.34;37.66;63.86;;
76261;Laerm;65076;52.362;6.588;2024-01-25T05:21:47;51.03;37.99;69.68;;
76261;Laerm;65076;52.362;6.588;2024-01-25T05:29:14;55.03;39.65;69.08;;
76261;Laerm;65076;52.362;6.588;2024-01-25T05:34:16;53.27;39.63;69.90;;
76261;Laerm;65076;52.362;6.588;2024-01-25T05:39:21;61.65;40.51;77.76;;
76261;Laerm;65076;52.362;6.588;2024-01-25T05:44:22;45.64;38.95;62.62;;
76261;Laerm;65076;52.362;6.588;2024-01-25T05:49:22;51.69;43.16;63.11;;
76261;Laerm;65076;52.362;6.588;2024-01-25T05:51:54;61.34;40.02;78.29;;
76261;Laerm;65076;52.362;6.588;2024-01-25T05:59:28;55.37;40.27;69.30;;
76261;Laerm;65076;52.362;6.588;2024-01-25T06:04:28;55.29;40.78;66.51;;
76261;Laerm;65076;52.362;6.588;2024-01-25T06:07:00;50.26;39.85;61.31;;
76261;Laerm;65076;52.362;6.588;2024-01-25T06:09:33;62.64;56.05;77.28;;
76261;Laerm;65076;52.362;6.588;2024-01-25T06:17:09;54.37;43.40;64.29;;
76261;Laerm;65076;52.362;6.588;2024-01-25T06:22:10;60.32;44.14;74.16;;
76261;Laerm;65076;52.362;6.588;2024-01-25T06:32:09;56.28;41.76;67.16;;
76261;Laerm;65076;52.362;6.588;2024-01-25T06:37:08;58.06;46.60;68.11;;
76261;Laerm;65076;52.362;6.588;2024-01-25T06:42:14;63.04;45.25;75.41;;
76261;Laerm;65076;52.362;6.588;2024-01-25T06:47:19;57.14;41.98;70.85;;
76261;Laerm;65076;52.362;6.588;2024-01-25T06:52:19;59.30;46.13;72.73;;
76261;Laerm;65076;52.362;6.588;2024-01-25T06:54:51;57.99;45.68;70.78;;
76261;Laerm;65076;52.362;6.588;2024-01-25T06:59:55;57.42;46.24;68.28;;
76261;Laerm;65076;52.362;6.588;2024-01-25T07:07:31;54.87;41.24;69.74;;
76261;Laerm;65076;52.362;6.588;2024-01-25T07:20:01;56.28;41.68;68.87;;
76261;Laerm;65076;52.362;6.588;2024-01-25T07:27:34;64.87;45.76;83.52;;
76261;Laerm;65076;52.362;6.588;2024-01-25T07:32:39;57.41;46.80;67.87;;
76261;Laerm;65076;52.362;6.588;2024-01-25T07:40:10;57.27;44.12;68.64;;
76261;Laerm;65076;52.362;6.588;2024-01-25T07:42:50;61.75;43.96;77.12;;
76261;Laerm;65076;52.362;6.588;2024-01-25T07:47:55;52.44;42.03;60.98;;
76261;Laerm;65076;52.362;6.588;2024-01-25T07:52:55;68.30;44.93;77.84;;
76261;Laerm;65076;52.362;6.588;2024-01-25T07:55:33;60.76;48.11;76.42;;
76261;Laerm;65076;52.362;6.588;2024-01-25T08:03:08;57.83;47.20;71.98;;
76261;Laerm;65076;52.362;6.588;2024-01-25T08:08:08;51.36;40.83;60.86;;
76261;Laerm;65076;52.362;6.588;2024-01-25T08:10:40;53.77;40.73;65.02;;
76261;Laerm;65076;52.362;6.588;2024-01-25T08:18:20;68.22;43.61;77.90;;
76261;Laerm;65076;52.362;6.588;2024-01-25T08:20:55;60.51;40.85;74.00;;
76261;Laerm;65076;52.362;6.588;2024-01-25T08:30:55;56.76;44.04;69.10;;
76261;Laerm;65076;52.362;6.588;2024-01-25T08:35:58;57.72;43.28;67.73;;
76261;Laerm;65076;52.362;6.588;2024-01-25T08:41:01;59.89;44.44;74.58;;
76261;Laerm;65076;52.362;6.588;2024-01-25T08:46:01;54.99;41.53;67.44;;
76261;Laerm;65076;52.362;6.588;2024-01-25T08:48:34;62.41;44.39;77.30;;
76261;Laerm;65076;52.362;6.588;2024-01-25T08:53:37;56.48;41.14;66.91;;
76261;Laerm;65076;52.362;6.588;2024-01-25T08:58:45;56.92;42.69;68.84;;
76261;Laerm;65076;52.362;6.588;2024-01-25T09:11:18;62.25;43.63;76.39;;
76261;Laerm;65076;52.362;6.588;2024-01-25T09:13:49;53.66;44.84;61.50;;
76261;Laerm;65076;52.362;6.588;2024-01-25T09:18:54;56.19;42.92;64.49;;
76261;Laerm;65076;52.362;6.588;2024-01-25T09:26:30;55.28;43.06;64.05;;
76261;Laerm;65076;52.362;6.588;2024-01-25T09:34:05;60.22;43.33;73.82;;
76261;Laerm;65076;52.362;6.588;2024-01-25T09:41:35;61.09;43.71;74.90;;
76261;Laerm;65076;52.362;6.588;2024-01-25T09:49:05;52.73;41.69;62.16;;
76261;Laerm;65076;52.362;6.588;2024-01-25T09:51:40;59.90;45.02;74.62;;
76261;Laerm;65076;52.362;6.588;2024-01-25T09:59:14;57.42;43.87;72.99;;
76261;Laerm;65076;52.362;6.588;2024-01-25T10:04:14;54.90;40.77;70.29;;
76261;Laerm;65076;52.362;6.588;2024-01-25T10:06:48;57.40;42.01;72.84;;
76261;Laerm;65076;52.362;6.588;2024-01-25T10:14:19;54.36;42.40;65.27;;
76261;Laerm;65076;52.362;6.588;2024-01-25T10:19:20;54.92;39.68;66.56;;
76261;Laerm;65076;52.362;6.588;2024-01-25T10:26:54;56.01;41.88;68.19;;
76261;Laerm;65076;52.362;6.588;2024-01-25T10:29:30;55.34;43.91;68.11;;
76261;Laerm;65076;52.362;6.588;2024-01-25T10:37:00;58.78;43.81;75.32;;
76261;Laerm;65076;52.362;6.588;2024-01-25T10:42:02;62.22;45.69;76.60;;
76261;Laerm;65076;52.362;6.588;2024-01-25T10:44:37;55.88;39.71;72.15;;
76261;Laerm;65076;52.362;6.588;2024-01-25T10:52:07;60.15;41.34;75.70;;
76261;Laerm;65076;52.362;6.588;2024-01-25T10:57:09;53.20;39.63;64.20;;
76261;Laerm;65076;52.362;6.588;2024-01-25T10:59:44;55.61;46.55;68.99;;
76261;Laerm;65076;52.362;6.588;2024-01-25T11:07:15;58.25;43.03;72.66;;
76261;Laerm;65076;52.362;6.588;2024-01-25T11:12:18;55.23;42.15;63.26;;
76261;Laerm;65076;52.362;6.588;2024-01-25T11:14:57;59.46;42.52;72.35;;
76261;Laerm;65076;52.362;6.588;2024-01-25T11:22:34;53.48;38.91;65.52;;
76261;Laerm;65076;52.362;6.588;2024-01-25T11:27:34;55.39;44.74;65.79;;
76261;Laerm;65076;52.362;6.588;2024-01-25T11:30:13;55.86;41.92;67.61;;
76261;Laerm;65076;52.362;6.588;2024-01-25T11:37:43;54.09;39.61;66.34;;
76261;Laerm;65076;52.362;6.588;2024-01-25T11:45:19;65.01;42.42;80.87;;
76261;Laerm;65076;52.362;6.588;2024-01-25T11:47:51;58.09;42.20;72.42;;
76261;Laerm;65076;52.362;6.588;2024-01-25T11:50:22;60.59;40.65;74.47;;
76261;Laerm;65076;52.362;6.588;2024-01-25T11:57:53;54.85;42.02;64.11;;
76261;Laerm;65076;52.362;6.588;2024-01-25T12:02:57;52.87;41.76;63.40;;
76261;Laerm;65076;52.362;6.588;2024-01-25T12:08:00;60.30;45.32;76.42;;
76261;Laerm;65076;52.362;6.588;2024-01-25T12:15:26;54.86;41.69;65.54;;
76261;Laerm;65076;52.362;6.588;2024-01-25T12:20:29;60.59;44.20;75.21;;
76261;Laerm;65076;52.362;6.588;2024-01-25T12:25:30;60.44;46.12;80.04;;
76261;Laerm;65076;52.362;6.588;2024-01-25T12:38:03;57.71;44.96;73.08;;
76261;Laerm;65076;52.362;6.588;2024-01-25T12:43:01;52.35;43.01;60.81;;
76261;Laerm;65076;52.362;6.588;2024-01-25T12:48:01;53.75;40.10;66.83;;
76261;Laerm;65076;52.362;6.588;2024-01-25T12:50:35;60.79;40.23;76.54;;
76261;Laerm;65076;52.362;6.588;2024-01-25T12:58:08;57.38;43.10;69.83;;
76261;Laerm;65076;52.362;6.588;2024-01-25T13:00:40;59.68;44.23;69.98;;
76261;Laerm;65076;52.362;6.588;2024-01-25T13:08:08;59.07;44.93;74.03;;
76261;Laerm;65076;52.362;6.588;2024-01-25T13:10:38;60.50;43.72;73.85;;
76261;Laerm;65076;52.362;6.588;2024-01-25T13:18:14;54.80;41.76;71.37;;
76261;Laerm;65076;52.362;6.588;2024-01-25T13:25:42;63.53;45.81;84.83;;
76261;Laerm;65076;52.362;6.588;2024-01-25T13:28:14;54.17;43.50;64.30;;
76261;Laerm;65076;52.362;6.588;2024-01-25T13:38:18;60.11;43.23;73.27;;
76261;Laerm;65076;52.362;6.588;2024-01-25T13:43:22;54.92;43.30;72.37;;
76261;Laerm;65076;52.362;6.588;2024-01-25T13:48:21;55.93;44.77;68.07;;
76261;Laerm;65076;52.362;6.588;2024-01-25T13:50:53;60.50;43.00;74.23;;
76261;Laerm;65076;52.362;6.588;2024-01-25T13:58:27;56.01;45.05;69.40;;
76261;Laerm;65076;52.362;6.588;2024-01-25T14:03:27;55.11;44.39;65.36;;
76261;Laerm;65076;52.362;6.588;2024-01-25T14:05:59;59.44;44.14;81.65;;
76261;Laerm;65076;52.362;6.588;2024-01-25T14:13:34;58.45;41.72;73.27;;
76261;Laerm;65076;52.362;6.588;2024-01-25T14:18:38;52.37;42.96;61.65;;
76261;Laerm;65076;52.362;6.588;2024-01-25T14:23:39;53.30;43.83;63.58;;
76261;Laerm;65076;52.362;6.588;2024-01-25T14:26:11;59.28;43.86;79.15;;
76261;Laerm;65076;52.362;6.588;2024-01-25T14:33:54;55.93;45.51;65.58;;
76261;Laerm;65076;52.362;6.588;2024-01-25T14:38:57;64.48;46.84;78.47;;
76261;Laerm;65076;52.362;6.588;2024-01-25T14:41:29;61.82;45.63;74.79;;
76261;Laerm;65076;52.362;6.588;2024-01-25T14:49:03;54.66;42.57;68.26;;
76261;Laerm;65076;52.362;6.588;2024-01-25T14:54:06;62.89;45.95;80.63;;
76261;Laerm;65076;52.362;6.588;2024-01-25T15:01:34;57.34;42.63;66.91;;
76261;Laerm;65076;52.362;6.588;2024-01-25T15:04:09;55.86;45.31;66.52;;
76261;Laerm;65076;52.362;6.588;2024-01-25T15:11:42;62.26;46.28;75.08;;
76261;Laerm;65076;52.362;6.588;2024-01-25T15:14:14;56.35;44.10;66.91;;
76261;Laerm;65076;52.362;6.588;2024-01-25T15:16:46;56.79;45.52;65.02;;
76261;Laerm;65076;52.362;6.588;2024-01-25T15:26:47;59.19;45.64;73.63;;
76261;Laerm;65076;52.362;6.588;2024-01-25T15:31:47;59.09;44.15;73.41;;
76261;Laerm;65076;52.362;6.588;2024-01-25T15:34:19;58.25;44.29;70.22;;
76261;Laerm;65076;52.362;6.588;2024-01-25T15:44:28;61.93;46.99;78.47;;
76261;Laerm;65076;52.362;6.588;2024-01-25T15:49:33;56.88;44.51;68.03;;
76261;Laerm;65076;52.362;6.588;2024-01-25T15:52:05;58.01;45.48;67.09;;
76261;Laerm;65076;52.362;6.588;2024-01-25T15:59:41;57.89;44.90;68.06;;
76261;Laerm;65076;52.362;6.588;2024-01-25T16:07:13;64.44;46.64;85.21;;
76261;Laerm;65076;52.362;6.588;2024-01-25T16:12:13;58.74;44.60;67.38;;
76261;Laerm;65076;52.362;6.588;2024-01-25T16:14:50;60.63;42.98;71.40;;
76261;Laerm;65076;52.362;6.588;2024-01-25T16:22:22;58.04;45.01;65.95;;
76261;Laerm;65076;52.362;6.588;2024-01-25T16:27:27;57.01;45.02;65.97;;
76261;Laerm;65076;52.362;6.588;2024-01-25T16:30:06;57.80;44.72;68.39;;
76261;Laerm;65076;52.362;6.588;2024-01-25T16:35:07;56.90;45.81;65.85;;
76261;Laerm;65076;52.362;6.588;2024-01-25T16:40:08;58.77;43.32;68.00;;
76261;Laerm;65076;52.362;6.588;2024-01-25T16:45:12;57.49;44.03;66.00;;
76261;Laerm;65076;52.362;6.588;2024-01-25T16:50:12;56.00;41.52;68.74;;
76261;Laerm;65076;52.362;6.588;2024-01-25T16:52:44;58.79;41.81;75.56;;
76261;Laerm;65076;52.362;6.588;2024-01-25T17:00:24;56.19;42.32;65.15;;
76261;Laerm;65076;52.362;6.588;2024-01-25T17:07:57;52.30;41.09;64.82;;
76261;Laerm;65076;52.362;6.588;2024-01-25T17:10:34;57.23;43.44;72.59;;
76261;Laerm;65076;52.362;6.588;2024-01-25T17:20:35;59.35;45.45;76.37;;
76261;Laerm;65076;52.362;6.588;2024-01-25T17:30:37;63.04;44.10;80.99;;
76261;Laerm;65076;52.362;6.588;2024-01-25T17:35:43;56.76;44.68;67.74;;
76261;Laerm;65076;52.362;6.588;2024-01-25T17:40:44;56.75;47.12;65.87;;
76261;Laerm;65076;52.362;6.588;2024-01-25T17:43:16;59.45;42.04;73.68;;
76261;Laerm;65076;52.362;6.588;2024-01-25T17:50:51;58.02;43.27;68.12;;
76261;Laerm;65076;52.362;6.588;2024-01-25T17:55:51;57.83;43.24;68.45;;
76261;Laerm;65076;52.362;6.588;2024-01-25T17:58:24;56.41;43.99;65.63;;
76261;Laerm;65076;52.362;6.588;2024-01-25T18:06:01;56.69;46.36;70.38;;
76261;Laerm;65076;52.362;6.588;2024-01-25T18:11:06;58.40;45.88;70.13;;
76261;Laerm;65076;52.362;6.588;2024-01-25T18:16:07;58.84;45.81;70.28;;
76261;Laerm;65076;52.362;6.588;2024-01-25T18:18:39;60.02;49.17;76.11;;
76261;Laerm;65076;52.362;6.588;2024-01-25T18:26:20;55.81;42.57;66.70;;
76261;Laerm;65076;52.362;6.588;2024-01-25T18:33:51;55.26;42.04;64.67;;
76261;Laerm;65076;52.362;6.588;2024-01-25T18:36:23;55.76;45.27;69.77;;
76261;Laerm;65076;52.362;6.588;2024-01-25T18:58:48;54.10;42.33;66.25;;
76261;Laerm;65076;52.362;6.588;2024-01-25T19:16:15;59.00;41.20;76.97;;
76261;Laerm;65076;52.362;6.588;2024-01-25T19:28:40;53.14;37.55;69.49;;
76261;Laerm;65076;52.362;6.588;2024-01-25T19:31:15;55.79;42.80;68.61;;
76261;Laerm;65076;52.362;6.588;2024-01-25T19:33:47;54.18;40.21;65.28;;
76261;Laerm;65076;52.362;6.588;2024-01-25T19:43:47;62.82;38.27;78.64;;
76261;Laerm;65076;52.362;6.588;2024-01-25T19:51:21;53.43;38.37;65.12;;
76261;Laerm;65076;52.362;6.588;2024-01-25T19:58:52;52.48;37.26;65.21;;
76261;Laerm;65076;52.362;6.588;2024-01-25T20:03:54;47.52;37.03;59.83;;
76261;Laerm;65076;52.362;6.588;2024-01-25T20:06:28;56.79;39.56;66.50;;
76261;Laerm;65076;52.362;6.588;2024-01-25T20:14:01;57.01;37.67;72.12;;
76261;Laerm;65076;52.362;6.588;2024-01-25T20:19:00;52.06;37.05;67.23;;
76261;Laerm;65076;52.362;6.588;2024-01-25T20:21:36;60.14;39.49;75.26;;
76261;Laerm;65076;52.362;6.588;2024-01-25T20:29:09;55.00;37.13;68.41;;
76261;Laerm;65076;52.362;6.588;2024-01-25T20:31:41;54.38;39.16;66.64;;
76261;Laerm;65076;52.362;6.588;2024-01-25T20:34:13;51.56;38.40;64.59;;
76261;Laerm;65076;52.362;6.588;2024-01-25T20:39:20;62.08;38.22;77.73;;
76261;Laerm;65076;52.362;6.588;2024-01-25T20:46:52;52.14;36.30;67.57;;
76261;Laerm;65076;52.362;6.588;2024-01-25T20:49:24;52.74;36.72;65.33;;
76261;Laerm;65076;52.362;6.588;2024-01-25T20:54:31;50.43;36.65;65.11;;
76261;Laerm;65076;52.362;6.588;2024-01-25T21:02:03;55.43;39.33;71.94;;
76261;Laerm;65076;52.362;6.588;2024-01-25T21:04:44;49.33;36.80;67.10;;
76261;Laerm;65076;52.362;6.588;2024-01-25T21:12:25;55.47;36.79;70.52;;
76261;Laerm;65076;52.362;6.588;2024-01-25T21:19:56;57.27;37.73;72.17;;
76261;Laerm;65076;52.362;6.588;2024-01-25T21:22:29;53.90;36.92;66.85;;
76261;Laerm;65076;52.362;6.588;2024-01-25T21:25:09;57.31;35.99;75.19;;
76261;Laerm;65076;52.362;6.588;2024-01-25T21:32:43;54.92;40.81;67.01;;
76261;Laerm;65076;52.362;6.588;2024-01-25T21:37:44;57.37;39.43;74.57;;
76261;Laerm;65076;52.362;6.588;2024-01-25T21:40:16;58.42;37.15;75.56;;
76261;Laerm;65076;52.362;6.588;2024-01-25T21:47:48;52.73;37.23;68.47;;
76261;Laerm;65076;52.362;6.588;2024-01-25T21:55:20;53.55;38.02;64.67;;
76261;Laerm;65076;52.362;6.588;2024-01-25T22:00:20;55.63;38.99;68.03;;
76261;Laerm;65076;52.362;6.588;2024-01-25T22:02:54;50.27;36.91;63.05;;
76261;Laerm;65076;52.362;6.588;2024-01-25T22:10:26;58.34;37.82;75.01;;
76261;Laerm;65076;52.362;6.588;2024-01-25T22:15:26;40.87;36.74;54.31;;
76261;Laerm;65076;52.362;6.588;2024-01-25T22:18:05;39.66;35.95;59.06;;
76261;Laerm;65076;52.362;6.588;2024-01-25T22:25:40;49.48;36.13;62.87;;
76261;Laerm;65076;52.362;6.588;2024-01-25T22:30:40;56.47;36.40;68.89;;
76261;Laerm;65076;52.362;6.588;2024-01-25T22:33:18;41.15;35.27;54.58;;
76261;Laerm;65076;52.362;6.588;2024-01-25T22:38:24;58.69;37.15;75.66;;
76261;Laerm;65076;52.362;6.588;2024-01-25T22:43:26;52.13;35.83;69.90;;
76261;Laerm;65076;52.362;6.588;2024-01-25T22:45:59;38.26;34.86;60.46;;
76261;Laerm;65076;52.362;6.588;2024-01-25T22:53:34;48.45;35.43;61.50;;
76261;Laerm;65076;52.362;6.588;2024-01-25T22:58:39;49.71;35.19;64.46;;
76261;Laerm;65076;52.362;6.588;2024-01-25T23:06:07;56.10;34.87;72.13;;
76261;Laerm;65076;52.362;6.588;2024-01-25T23:08:42;58.58;35.29;76.61;;
76261;Laerm;65076;52.362;6.588;2024-01-25T23:16:15;36.14;34.28;42.62;;
76261;Laerm;65076;52.362;6.588;2024-01-25T23:21:17;58.63;35.02;74.48;;
76261;Laerm;65076;52.362;6.588;2024-01-25T23:23:55;43.85;33.62;56.97;;
76261;Laerm;65076;52.362;6.588;2024-01-25T23:31:33;47.89;33.34;64.70;;
76261;Laerm;65076;52.362;6.588;2024-01-25T23:36:35;44.61;33.56;64.96;;
76261;Laerm;65076;52.362;6.588;2024-01-25T23:39:10;35.30;33.56;38.05;;
76261;Laerm;65076;52.362;6.588;2024-01-25T23:49:11;41.34;33.75;55.83;;
76261;Laerm;65076;52.362;6.588;2024-01-25T23:51:44;50.00;33.73;64.06;;
76261;Laerm;65076;52.362;6.588;2024-01-25T23:56:48;36.29;33.90;41.42;;
